This is the latest recevied weather packets stored in our database for station/object KF4PPJ. If no packets are shown the sender has not sent any weather packets the latest 10 day(s).
| Time | Temp. | Humidity | Pressure | Rain* | Wind** | Luminosity | Snow |
|---|---|---|---|---|---|---|---|
| 1777484645 | 14.44° C | 66% | 1027.5 hPa | 0 mm | - | 631 W/m² | - |
| 1777484342 | 14.44° C | 66% | 1027.4 hPa | 0 mm | - | 651 W/m² | - |
| 1777484037 | 14.44° C | 67% | 1027.6 hPa | 0 mm | - | 626 W/m² | - |
| 1777483734 | 14.44° C | 66% | 1027.7 hPa | 0 mm | - | 293 W/m² | - |
| 1777483430 | 15° C | 65% | 1027.4 hPa | 0 mm | - | 582 W/m² | - |
| 1777483125 | 14.44° C | 67% | 1027.5 hPa | 0 mm | - | 526 W/m² | - |
| 1777482823 | 14.44° C | 65% | 1027.5 hPa | 0 mm | - | 566 W/m² | - |
| 1777482518 | 13.89° C | 68% | 1027.7 hPa | 0 mm | - | 579 W/m² | - |
| 1777482216 | 14.44° C | 65% | 1027.7 hPa | 0 mm | - | 544 W/m² | - |
| 1777481913 | 13.89° C | 65% | 1027.7 hPa | 0 mm | - | 530 W/m² | - |
| 1777481611 | 13.33° C | 67% | 1027.9 hPa | 0 mm | - | 474 W/m² | - |
| 1777481308 | 13.89° C | 65% | 1028 hPa | 0 mm | - | 381 W/m² | - |
| 1777481004 | 13.33° C | 67% | 1027.9 hPa | 0 mm | - | 331 W/m² | - |
| 1777480701 | 13.33° C | 66% | 1028 hPa | 0 mm | - | 361 W/m² | - |
| 1777480398 | 12.78° C | 67% | 1027.8 hPa | 0 mm | - | 385 W/m² | - |
| 1777480093 | 12.78° C | 67% | 1028 hPa | 0 mm | - | 363 W/m² | - |
| 1777479790 | 12.78° C | 70% | 1028 hPa | 0 mm | - | 319 W/m² | - |
| 1777479487 | 12.22° C | 71% | 1028 hPa | 0 mm | - | 336 W/m² | - |
| 1777479184 | 11.67° C | 72% | 1028.4 hPa | 0 mm | - | 332 W/m² | - |
| 1777478881 | 11.67° C | 71% | 1028.3 hPa | 0 mm | - | 290 W/m² | - |
| 1777478577 | 12.22° C | 71% | 1028.3 hPa | 0 mm | - | 282 W/m² | - |
| 1777478274 | 12.22° C | 72% | 1028.3 hPa | 0 mm | - | 81 W/m² | - |
| 1777477970 | 12.22° C | 72% | 1028.3 hPa | 0 mm | - | 62 W/m² | - |
| 1777477666 | 11.67° C | 73% | 1028.5 hPa | 0 mm | - | 55 W/m² | - |
| 1777477363 | 11.67° C | 73% | 1028.1 hPa | 0 mm | - | 52 W/m² | - |
* Rain latest hour (hover to see other rain measurements)
** Current wind speed in m/s (hover to see current wind gust speed)